Time;durP1;ratioP1;P1;durP2;ratioP2;P2;SDS_P1;SDS_P2;PMS_P1;PMS_P2;Temp;Humidity;BMP_temperature;BMP_pressure;BME280_temperature;BME280_humidity;BME280_pressure;Samples;Min_cycle;Max_cycle;Signal;HPM_P1;HPM_P2
2022/04/01 00:00:37;;;;;;;;;;;23.60;47.30;;;;;;5099308;28;1052;-48
2022/04/01 00:03:04;;;;;;;;;;;23.50;47.30;;;;;;5099653;28;948;-48
2022/04/01 00:05:33;;;;;;;;;;;23.50;48.50;;;;;;5099890;28;1058;-48
2022/04/01 00:08:00;;;;;;;;;;;23.50;47.40;;;;;;5100379;28;935;-47
2022/04/01 00:10:27;;;;;;;;;;;23.50;47.30;;;;;;5099490;28;1020;-47
2022/04/01 00:12:54;;;;;;;;;;;23.50;47.30;;;;;;5100226;28;1905;-48
2022/04/01 00:15:21;;;;;;;;;;;23.50;47.40;;;;;;5099480;28;1019;-48
2022/04/01 00:17:48;;;;;;;;;;;23.50;47.50;;;;;;5100125;28;1014;-47
2022/04/01 00:20:18;;;;;;;;;;;23.50;47.40;;;;;;5099299;28;940;-47
2022/04/01 00:22:46;;;;;;;;;;;23.50;47.40;;;;;;5099202;28;1044;-46
2022/04/01 00:25:13;;;;;;;;;;;23.60;47.30;;;;;;5099474;28;1007;-47
2022/04/01 00:27:40;;;;;;;;;;;23.50;47.30;;;;;;5099512;28;864;-48
2022/04/01 00:30:07;;;;;;;;;;;23.50;47.40;;;;;;5098601;28;972;-47
2022/04/01 00:32:34;;;;;;;;;;;23.50;47.40;;;;;;5098614;28;1038;-48
2022/04/01 00:35:00;;;;;;;;;;;23.50;47.50;;;;;;5098843;28;1952;-47
2022/04/01 00:37:27;;;;;;;;;;;23.40;47.50;;;;;;5098677;28;974;-47
2022/04/01 00:39:55;;;;;;;;;;;23.40;47.50;;;;;;5098913;28;904;-47
2022/04/01 00:42:23;;;;;;;;;;;23.50;47.60;;;;;;5098254;28;991;-47
2022/04/01 00:44:49;;;;;;;;;;;23.50;47.60;;;;;;5098992;28;988;-47
2022/04/01 00:47:16;;;;;;;;;;;23.50;47.60;;;;;;5098548;28;1002;-47
2022/04/01 00:49:44;;;;;;;;;;;23.50;47.60;;;;;;5098963;28;1351;-47
2022/04/01 00:52:12;;;;;;;;;;;23.40;47.60;;;;;;5098723;28;995;-47
2022/04/01 00:54:39;;;;;;;;;;;23.50;47.60;;;;;;5098194;28;1901;-47
2022/04/01 00:57:08;;;;;;;;;;;23.50;47.60;;;;;;5098091;28;1004;-47
2022/04/01 00:59:35;;;;;;;;;;;23.50;47.50;;;;;;5098542;28;1019;-47
2022/04/01 01:02:02;;;;;;;;;;;23.40;47.60;;;;;;5098623;28;1020;-47
2022/04/01 01:04:29;;;;;;;;;;;23.40;47.60;;;;;;5098714;28;1015;-47
2022/04/01 01:06:57;;;;;;;;;;;23.50;47.60;;;;;;5098609;28;939;-47
2022/04/01 01:09:25;;;;;;;;;;;23.50;47.60;;;;;;5098743;28;936;-47
2022/04/01 01:11:52;;;;;;;;;;;23.40;47.60;;;;;;5098182;28;1003;-48
2022/04/01 01:14:26;;;;;;;;;;;23.40;47.60;;;;;;5098309;28;1898;-47
2022/04/01 01:16:53;;;;;;;;;;;23.40;47.70;;;;;;5098949;28;1030;-47
2022/04/01 01:19:20;;;;;;;;;;;23.40;47.70;;;;;;5098220;28;1019;-48
2022/04/01 01:21:49;;;;;;;;;;;23.40;47.60;;;;;;5098922;28;1050;-48
2022/04/01 01:24:17;;;;;;;;;;;23.40;47.60;;;;;;5098475;28;957;-47
2022/04/01 01:26:51;;;;;;;;;;;23.40;47.60;;;;;;5098357;28;956;-47
2022/04/01 01:29:19;;;;;;;;;;;23.40;47.60;;;;;;5098297;28;1871;-47
2022/04/01 01:31:47;;;;;;;;;;;23.50;47.60;;;;;;5097235;28;964;-47
2022/04/01 01:34:13;;;;;;;;;;;23.40;47.50;;;;;;5097565;28;1901;-47
2022/04/01 01:36:40;;;;;;;;;;;23.40;47.50;;;;;;5098118;28;948;-47
2022/04/01 01:39:07;;;;;;;;;;;23.50;47.40;;;;;;5097827;28;916;-47
2022/04/01 01:41:34;;;;;;;;;;;23.50;47.50;;;;;;5097989;28;1009;-47
2022/04/01 01:44:04;;;;;;;;;;;23.40;47.60;;;;;;5097814;28;1023;-48
2022/04/01 01:46:30;;;;;;;;;;;23.40;47.60;;;;;;5097544;28;1007;-47
2022/04/01 01:48:57;;;;;;;;;;;23.40;47.60;;;;;;5098082;28;1019;-47
2022/04/01 01:56:53;;;;;;;;;;;23.40;47.60;;;;;;5097452;28;950;-46
2022/04/01 01:59:21;;;;;;;;;;;23.40;47.60;;;;;;5098177;28;981;-47
2022/04/01 02:01:50;;;;;;;;;;;23.40;47.70;;;;;;5097514;28;989;-48
2022/04/01 02:04:16;;;;;;;;;;;23.40;47.70;;;;;;5097672;28;1035;-47
2022/04/01 02:06:43;;;;;;;;;;;23.30;47.70;;;;;;5097719;28;979;-47
2022/04/01 02:09:10;;;;;;;;;;;23.30;47.70;;;;;;5098058;28;932;-47
2022/04/01 02:11:37;;;;;;;;;;;23.40;47.80;;;;;;5097950;28;1025;-47
2022/04/01 02:14:04;;;;;;;;;;;23.50;47.40;;;;;;5097832;28;1905;-47
2022/04/01 02:16:33;;;;;;;;;;;23.50;47.30;;;;;;5097103;28;940;-48
2022/04/01 02:19:00;;;;;;;;;;;23.40;47.40;;;;;;5097921;28;976;-47
2022/04/01 02:21:27;;;;;;;;;;;23.40;47.50;;;;;;5097819;28;1011;-47
2022/04/01 02:23:53;;;;;;;;;;;23.40;47.50;;;;;;5097374;28;920;-48
2022/04/01 02:26:20;;;;;;;;;;;23.40;47.40;;;;;;5097604;28;920;-47
2022/04/01 02:28:48;;;;;;;;;;;23.40;47.60;;;;;;5097251;28;994;-47
2022/04/01 02:31:15;;;;;;;;;;;23.40;47.50;;;;;;5097017;28;1067;-47
2022/04/01 02:33:43;;;;;;;;;;;23.40;47.50;;;;;;5096786;28;1980;-47
2022/04/01 02:39:23;;;;;;;;;;;23.40;47.50;;;;;;5096681;28;919;-47
2022/04/01 02:41:50;;;;;;;;;;;23.30;47.50;;;;;;5097110;28;964;-47
2022/04/01 02:44:16;;;;;;;;;;;23.30;47.60;;;;;;5101243;28;1102;-47
2022/04/01 02:46:44;;;;;;;;;;;23.30;47.50;;;;;;5100776;28;944;-47
2022/04/01 02:49:14;;;;;;;;;;;23.30;47.60;;;;;;5101184;28;1092;-47
2022/04/01 02:51:41;;;;;;;;;;;23.30;47.60;;;;;;5101565;28;964;-47
2022/04/01 02:54:09;;;;;;;;;;;23.30;47.60;;;;;;5100793;28;2042;-47
2022/04/01 02:56:36;;;;;;;;;;;23.30;47.60;;;;;;5100948;28;985;-47
2022/04/01 02:59:06;;;;;;;;;;;23.30;47.50;;;;;;5100742;28;988;-47
2022/04/01 03:01:33;;;;;;;;;;;23.30;47.50;;;;;;5101069;28;971;-47
2022/04/01 03:04:00;;;;;;;;;;;23.30;47.70;;;;;;5100974;28;1014;-47
2022/04/01 03:06:28;;;;;;;;;;;23.30;47.70;;;;;;5100986;28;960;-47
2022/04/01 03:08:55;;;;;;;;;;;23.30;47.60;;;;;;5101268;28;1003;-47
2022/04/01 03:11:22;;;;;;;;;;;23.30;47.60;;;;;;5101238;28;1008;-47
2022/04/01 03:13:48;;;;;;;;;;;23.30;48.70;;;;;;5100289;28;971;-39
2022/04/01 03:16:15;;;;;;;;;;;23.30;47.60;;;;;;5100724;28;1836;-38
2022/04/01 03:18:42;;;;;;;;;;;23.30;47.60;;;;;;5100936;28;990;-39
2022/04/01 03:21:10;;;;;;;;;;;23.30;47.50;;;;;;5101466;28;999;-39
2022/04/01 03:23:40;;;;;;;;;;;23.30;47.50;;;;;;5100283;28;1003;-39
2022/04/01 03:26:07;;;;;;;;;;;23.30;47.50;;;;;;5100060;28;968;-39
2022/04/01 03:28:34;;;;;;;;;;;23.30;47.50;;;;;;5100234;28;1002;-39
2022/04/01 03:31:03;;;;;;;;;;;23.30;47.50;;;;;;5100568;28;948;-38
2022/04/01 03:33:30;;;;;;;;;;;23.20;47.50;;;;;;5099509;28;932;-38
2022/04/01 03:35:57;;;;;;;;;;;23.30;47.50;;;;;;5100364;28;1976;-39
2022/04/01 03:38:24;;;;;;;;;;;23.30;47.60;;;;;;5100256;28;972;-39
2022/04/01 03:40:52;;;;;;;;;;;23.20;47.50;;;;;;5099572;28;937;-38
2022/04/01 03:43:21;;;;;;;;;;;23.20;47.50;;;;;;5099475;28;1053;-33
2022/04/01 03:45:48;;;;;;;;;;;23.30;47.50;;;;;;5100555;28;1031;-33
2022/04/01 03:48:18;;;;;;;;;;;23.30;47.50;;;;;;5100092;28;929;-34
2022/04/01 03:50:49;;;;;;;;;;;23.30;47.50;;;;;;5099936;28;940;-34
2022/04/01 03:53:17;;;;;;;;;;;23.30;47.40;;;;;;5099539;28;1007;-36
2022/04/01 03:55:46;;;;;;;;;;;23.20;47.40;;;;;;5099257;28;1988;-44
2022/04/01 03:58:14;;;;;;;;;;;23.30;47.40;;;;;;5099794;28;1012;-43
2022/04/01 04:00:41;;;;;;;;;;;23.20;47.40;;;;;;5099425;28;1015;-43
2022/04/01 04:03:10;;;;;;;;;;;23.10;47.60;;;;;;5098929;28;977;-43
2022/04/01 04:05:37;;;;;;;;;;;23.20;47.50;;;;;;5099980;28;1087;-44
2022/04/01 04:08:04;;;;;;;;;;;23.10;47.60;;;;;;5099555;28;943;-44
2022/04/01 04:10:32;;;;;;;;;;;23.20;47.50;;;;;;5099744;28;989;-43
2022/04/01 04:12:59;;;;;;;;;;;23.10;47.50;;;;;;5098674;28;936;-43
2022/04/01 04:15:29;;;;;;;;;;;23.10;47.60;;;;;;5098913;28;1986;-46
2022/04/01 04:17:59;;;;;;;;;;;23.10;47.60;;;;;;5099519;28;891;-46
2022/04/01 04:20:29;;;;;;;;;;;23.20;47.60;;;;;;5098824;28;977;-46
2022/04/01 04:23:00;;;;;;;;;;;23.20;47.50;;;;;;5098511;28;1019;-47
2022/04/01 04:25:34;;;;;;;;;;;23.20;47.50;;;;;;5099182;28;933;-47
2022/04/01 04:28:01;;;;;;;;;;;23.20;47.50;;;;;;5098134;28;1002;-47
2022/04/01 04:30:32;;;;;;;;;;;23.20;47.60;;;;;;5098473;28;1024;-47
2022/04/01 04:33:04;;;;;;;;;;;23.20;47.40;;;;;;5097957;28;893;-46
2022/04/01 04:35:31;;;;;;;;;;;23.20;47.60;;;;;;5096808;28;1902;-47
2022/04/01 04:37:58;;;;;;;;;;;23.20;47.40;;;;;;5098024;28;960;-45
2022/04/01 04:40:25;;;;;;;;;;;23.20;47.20;;;;;;5097450;28;999;-47
2022/04/01 04:42:53;;;;;;;;;;;23.30;47.10;;;;;;5096761;28;1087;-46
2022/04/01 04:45:20;;;;;;;;;;;23.40;47.00;;;;;;5097780;28;1012;-46
2022/04/01 04:47:49;;;;;;;;;;;23.40;46.90;;;;;;5098072;28;1010;-46
2022/04/01 04:50:16;;;;;;;;;;;23.40;47.00;;;;;;5097918;28;1026;-47
2022/04/01 04:52:45;;;;;;;;;;;23.30;47.40;;;;;;5097378;28;936;-47
2022/04/01 04:55:14;;;;;;;;;;;23.30;47.10;;;;;;5097446;28;1979;-46
2022/04/01 04:57:42;;;;;;;;;;;23.30;47.10;;;;;;5097095;28;884;-38
2022/04/01 05:00:10;;;;;;;;;;;23.30;46.90;;;;;;5097921;28;1066;-38
2022/04/01 05:02:42;;;;;;;;;;;23.30;47.00;;;;;;5097018;28;924;-39
2022/04/01 05:05:13;;;;;;;;;;;23.30;46.80;;;;;;5096458;28;988;-38
2022/04/01 05:07:43;;;;;;;;;;;23.40;46.80;;;;;;5097193;28;864;-39
2022/04/01 05:10:16;;;;;;;;;;;23.30;46.90;;;;;;5097123;28;1026;-39
2022/04/01 05:12:51;;;;;;;;;;;23.30;47.10;;;;;;5096310;28;1039;-39
2022/04/01 05:15:20;;;;;;;;;;;23.30;47.00;;;;;;5096642;28;1971;-38
2022/04/01 05:17:53;;;;;;;;;;;23.30;47.00;;;;;;5095405;28;952;-38
2022/04/01 05:20:24;;;;;;;;;;;23.20;47.00;;;;;;5096654;28;1000;-39
2022/04/01 05:22:57;;;;;;;;;;;23.30;47.00;;;;;;5096029;28;1050;-40
2022/04/01 05:25:25;;;;;;;;;;;23.30;47.00;;;;;;5076710;28;996;-38
2022/04/01 05:27:53;;;;;;;;;;;23.40;46.80;;;;;;5075729;28;936;-38
2022/04/01 05:30:20;;;;;;;;;;;23.30;46.80;;;;;;5076479;28;1113;-38
2022/04/01 05:32:58;;;;;;;;;;;23.30;46.80;;;;;;5075027;28;1008;-38
2022/04/01 05:35:29;;;;;;;;;;;23.30;46.80;;;;;;5074720;28;1981;-44
2022/04/01 05:37:56;;;;;;;;;;;23.40;46.80;;;;;;5074561;28;996;-44
2022/04/01 05:40:23;;;;;;;;;;;23.20;46.90;;;;;;5074500;28;1091;-43
2022/04/01 05:42:52;;;;;;;;;;;23.20;47.00;;;;;;5075234;28;1291;-44
2022/04/01 05:45:19;;;;;;;;;;;23.10;47.00;;;;;;5075879;28;1006;-44
2022/04/01 05:47:47;;;;;;;;;;;23.20;47.10;;;;;;5080744;28;1859;-44
2022/04/01 05:50:14;;;;;;;;;;;23.10;47.10;;;;;;5097241;28;1015;-43
2022/04/01 05:52:43;;;;;;;;;;;23.10;48.30;;;;;;5097012;28;1004;-45
2022/04/01 05:55:11;;;;;;;;;;;23.10;47.20;;;;;;5095313;28;1905;-44
2022/04/01 05:57:38;;;;;;;;;;;23.10;47.10;;;;;;5095749;28;1023;-43
2022/04/01 06:00:06;;;;;;;;;;;23.10;47.10;;;;;;5096393;28;976;-43
2022/04/01 06:02:37;;;;;;;;;;;23.10;47.10;;;;;;5095733;28;1002;-46
2022/04/01 06:05:15;;;;;;;;;;;23.10;47.20;;;;;;5096535;28;1024;-46
2022/04/01 06:07:49;;;;;;;;;;;23.10;48.30;;;;;;5096036;28;988;-45
2022/04/01 06:10:21;;;;;;;;;;;23.10;47.10;;;;;;5096276;28;952;-48
2022/04/01 06:12:54;;;;;;;;;;;23.00;47.20;;;;;;5096078;28;1025;-45
2022/04/01 06:15:25;;;;;;;;;;;23.00;47.10;;;;;;5095610;28;1977;-44
2022/04/01 06:17:58;;;;;;;;;;;23.00;47.20;;;;;;5099754;28;1083;-46
2022/04/01 06:20:27;;;;;;;;;;;23.00;47.30;;;;;;5100200;28;1557;-44
2022/04/01 06:22:59;;;;;;;;;;;23.00;47.20;;;;;;5100064;28;1510;-39
2022/04/01 06:25:29;;;;;;;;;;;23.10;47.20;;;;;;5098867;28;1640;-39
2022/04/01 06:28:01;;;;;;;;;;;23.10;47.20;;;;;;5097145;28;1526;-39
2022/04/01 06:30:29;;;;;;;;;;;23.00;47.60;;;;;;5089825;28;1597;-39
2022/04/01 06:32:59;;;;;;;;;;;23.00;47.70;;;;;;5099548;28;1608;-41
2022/04/01 06:35:27;;;;;;;;;;;23.20;47.60;;;;;;5099341;28;1898;-41
2022/04/01 06:37:58;;;;;;;;;;;23.20;47.40;;;;;;5100163;28;1001;-41
2022/04/01 06:40:28;;;;;;;;;;;23.10;47.90;;;;;;5102368;28;1019;-35
2022/04/01 06:42:55;;;;;;;;;;;23.10;47.90;;;;;;5103161;28;1590;-36
2022/04/01 06:45:22;;;;;;;;;;;23.20;47.60;;;;;;5102105;28;1020;-35
2022/04/01 06:47:51;;;;;;;;;;;23.30;47.30;;;;;;5102671;28;956;-34
2022/04/01 06:50:22;;;;;;;;;;;23.30;47.00;;;;;;5102543;28;1452;-35
2022/04/01 06:52:49;;;;;;;;;;;23.30;47.10;;;;;;5101231;28;1549;-32
2022/04/01 06:55:17;;;;;;;;;;;23.30;46.90;;;;;;5099985;28;1902;-33
2022/04/01 06:57:44;;;;;;;;;;;23.30;46.80;;;;;;5098400;28;1591;-34
2022/04/01 07:00:13;;;;;;;;;;;23.40;46.70;;;;;;5099353;28;1546;-33
2022/04/01 07:02:40;;;;;;;;;;;23.40;46.80;;;;;;5093386;28;1319;-35
2022/04/01 07:05:07;;;;;;;;;;;23.30;46.70;;;;;;5099666;28;1789;-34
2022/04/01 07:07:34;;;;;;;;;;;23.40;46.50;;;;;;5098767;28;1541;-33
2022/04/01 07:10:01;;;;;;;;;;;23.30;46.60;;;;;;5100101;28;1018;-35
2022/04/01 07:12:32;;;;;;;;;;;23.30;46.60;;;;;;5100132;28;1042;-35
2022/04/01 07:14:59;;;;;;;;;;;23.30;46.60;;;;;;5098708;28;1003;-34
2022/04/01 07:17:26;;;;;;;;;;;23.40;46.50;;;;;;5099179;28;1905;-35
2022/04/01 07:19:52;;;;;;;;;;;23.30;46.50;;;;;;5099539;28;1443;-34
2022/04/01 07:22:19;;;;;;;;;;;23.30;46.60;;;;;;5098519;28;948;-34
2022/04/01 07:24:46;;;;;;;;;;;23.30;46.60;;;;;;5099255;28;1018;-34
2022/04/01 07:27:13;;;;;;;;;;;23.20;46.70;;;;;;5098156;28;993;-35
2022/04/01 07:29:41;;;;;;;;;;;23.10;46.90;;;;;;5097270;28;1018;-35
2022/04/01 07:34:52;;;;;;;;;;;23.20;46.70;;;;;;5098277;28;920;-34
2022/04/01 07:37:21;;;;;;;;;;;23.10;46.70;;;;;;5098225;28;1909;-33
2022/04/01 07:39:48;;;;;;;;;;;23.10;46.70;;;;;;5097756;28;940;-33
2022/04/01 07:42:15;;;;;;;;;;;23.10;46.90;;;;;;5097791;28;1251;-35
2022/04/01 07:44:43;;;;;;;;;;;23.10;47.00;;;;;;5097267;28;940;-36
2022/04/01 07:47:10;;;;;;;;;;;23.10;46.90;;;;;;5096895;28;1008;-35
2022/04/01 07:49:37;;;;;;;;;;;23.10;47.00;;;;;;5097851;28;935;-35
2022/04/01 07:52:07;;;;;;;;;;;23.10;47.00;;;;;;5098527;28;1027;-35
2022/04/01 07:54:34;;;;;;;;;;;23.10;46.90;;;;;;5096968;28;980;-34
2022/04/01 07:57:01;;;;;;;;;;;23.10;46.90;;;;;;5096713;28;1980;-35
2022/04/01 07:59:27;;;;;;;;;;;23.10;46.90;;;;;;5098189;28;1000;-35
2022/04/01 08:01:56;;;;;;;;;;;23.10;47.00;;;;;;5099203;28;1008;-36
2022/04/01 08:04:25;;;;;;;;;;;23.10;47.10;;;;;;5098867;28;1030;-36
2022/04/01 08:06:52;;;;;;;;;;;23.10;46.90;;;;;;5096766;28;1033;-34
2022/04/01 08:09:19;;;;;;;;;;;23.00;46.90;;;;;;5096754;28;1013;-35
2022/04/01 08:11:45;;;;;;;;;;;23.00;47.00;;;;;;5097235;28;940;-35
2022/04/01 08:14:12;;;;;;;;;;;23.00;47.00;;;;;;5096718;28;981;-34
2022/04/01 08:16:39;;;;;;;;;;;23.10;46.90;;;;;;5096172;28;1977;-34
2022/04/01 08:19:07;;;;;;;;;;;23.00;46.80;;;;;;5096557;28;1007;-34
2022/04/01 08:21:34;;;;;;;;;;;23.00;46.90;;;;;;5097366;28;939;-36
2022/04/01 08:24:01;;;;;;;;;;;23.10;46.80;;;;;;5096732;28;1366;-35
2022/04/01 08:26:28;;;;;;;;;;;23.00;46.80;;;;;;5095729;28;907;-34
2022/04/01 08:28:54;;;;;;;;;;;23.10;46.90;;;;;;5096489;28;1102;-34
2022/04/01 08:31:21;;;;;;;;;;;23.10;46.70;;;;;;5096714;28;923;-34
2022/04/01 08:33:50;;;;;;;;;;;23.10;46.70;;;;;;5097017;28;964;-34
2022/04/01 08:36:19;;;;;;;;;;;23.00;46.70;;;;;;5096652;28;1898;-34
2022/04/01 08:38:46;;;;;;;;;;;23.00;46.90;;;;;;5096736;28;1002;-35
2022/04/01 08:41:16;;;;;;;;;;;23.00;46.90;;;;;;5096747;28;978;-34
2022/04/01 08:43:45;;;;;;;;;;;23.00;46.90;;;;;;5095851;28;1146;-34
2022/04/01 08:46:12;;;;;;;;;;;23.00;46.90;;;;;;5096880;28;943;-33
2022/04/01 08:48:39;;;;;;;;;;;23.00;47.00;;;;;;5096279;28;968;-35
2022/04/01 08:51:06;;;;;;;;;;;22.90;47.00;;;;;;5097057;28;893;-35
2022/04/01 08:53:38;;;;;;;;;;;22.90;47.10;;;;;;5096970;28;939;-36
2022/04/01 08:56:05;;;;;;;;;;;22.90;47.10;;;;;;5096697;28;1891;-34
2022/04/01 08:58:33;;;;;;;;;;;23.00;47.10;;;;;;5095844;28;1058;-34
2022/04/01 09:01:00;;;;;;;;;;;23.00;47.00;;;;;;5096462;28;849;-36
2022/04/01 09:03:27;;;;;;;;;;;23.00;47.00;;;;;;5096441;28;987;-34
2022/04/01 09:05:55;;;;;;;;;;;23.00;46.80;;;;;;5095961;28;1861;-34
2022/04/01 09:08:23;;;;;;;;;;;23.00;46.80;;;;;;5095798;28;893;-35
2022/04/01 09:10:53;;;;;;;;;;;23.00;46.80;;;;;;5096236;28;968;-35
2022/04/01 09:13:20;;;;;;;;;;;23.00;46.70;;;;;;5094979;28;1001;-34
2022/04/01 09:15:47;;;;;;;;;;;23.10;46.70;;;;;;5095860;28;1914;-35
2022/04/01 09:18:13;;;;;;;;;;;23.00;46.80;;;;;;5095474;28;995;-40
2022/04/01 09:20:45;;;;;;;;;;;23.00;46.80;;;;;;5096181;28;1035;-40
2022/04/01 09:23:12;;;;;;;;;;;23.00;46.80;;;;;;5097059;28;877;-39
2022/04/01 09:25:47;;;;;;;;;;;23.00;46.80;;;;;;5095542;28;1915;-40
2022/04/01 09:28:23;;;;;;;;;;;23.00;46.70;;;;;;5096400;28;944;-39
2022/04/01 09:30:57;;;;;;;;;;;23.10;46.60;;;;;;5096573;28;893;-39
2022/04/01 09:33:23;;;;;;;;;;;23.10;46.60;;;;;;5095258;28;1036;-40
2022/04/01 09:35:53;;;;;;;;;;;23.10;46.40;;;;;;5093991;28;1917;-40
2022/04/01 09:38:19;;;;;;;;;;;23.10;46.40;;;;;;5096388;28;932;-40
2022/04/01 09:40:50;;;;;;;;;;;23.10;46.50;;;;;;5095820;28;1007;-42
2022/04/01 09:43:22;;;;;;;;;;;23.10;46.40;;;;;;5094836;28;1167;-40
2022/04/01 09:45:49;;;;;;;;;;;23.10;46.50;;;;;;5094938;28;995;-39
2022/04/01 09:48:19;;;;;;;;;;;23.10;46.50;;;;;;5094729;28;939;-40
2022/04/01 09:50:55;;;;;;;;;;;23.10;46.50;;;;;;5093733;28;1840;-40
2022/04/01 09:53:21;;;;;;;;;;;23.10;46.50;;;;;;5095216;28;1017;-40
2022/04/01 09:55:49;;;;;;;;;;;23.10;46.60;;;;;;5094693;28;1142;-40
2022/04/01 09:58:16;;;;;;;;;;;23.10;46.50;;;;;;5094976;28;1917;-40
2022/04/01 10:00:45;;;;;;;;;;;23.10;46.40;;;;;;5094838;28;1019;-39
2022/04/01 10:03:12;;;;;;;;;;;23.10;46.50;;;;;;5094830;28;1015;-40
2022/04/01 10:05:40;;;;;;;;;;;23.00;46.60;;;;;;5095053;28;960;-34
2022/04/01 10:08:08;;;;;;;;;;;23.00;46.50;;;;;;5094140;28;964;-34
2022/04/01 10:10:35;;;;;;;;;;;23.00;46.50;;;;;;5094054;28;1016;-34
2022/04/01 10:13:03;;;;;;;;;;;23.00;46.60;;;;;;5094442;28;931;-35
2022/04/01 10:15:31;;;;;;;;;;;23.00;46.50;;;;;;5094416;28;868;-35
2022/04/01 10:18:02;;;;;;;;;;;23.00;46.40;;;;;;5094493;28;1901;-35
2022/04/01 10:20:31;;;;;;;;;;;23.00;46.50;;;;;;5094008;28;944;-35
2022/04/01 10:22:58;;;;;;;;;;;23.00;46.50;;;;;;5095237;28;928;-33
2022/04/01 10:25:27;;;;;;;;;;;23.00;46.60;;;;;;5094614;28;1162;-33
2022/04/01 10:27:55;;;;;;;;;;;23.00;46.50;;;;;;5094539;28;1011;-33
2022/04/01 10:30:24;;;;;;;;;;;23.00;46.60;;;;;;5095008;28;1139;-36
2022/04/01 10:32:51;;;;;;;;;;;23.00;46.60;;;;;;5094391;28;1003;-36
2022/04/01 10:35:23;;;;;;;;;;;23.00;46.50;;;;;;5095212;28;1009;-34
2022/04/01 10:37:53;;;;;;;;;;;23.00;46.40;;;;;;5095710;28;1918;-36
2022/04/01 10:40:20;;;;;;;;;;;23.00;46.50;;;;;;5094845;28;1084;-40
2022/04/01 10:42:48;;;;;;;;;;;23.00;46.40;;;;;;5094084;28;1043;-41
2022/04/01 10:45:32;;;;;;;;;;;23.00;46.60;;;;;;5094005;28;986;-41
2022/04/01 10:54:00;;;;;;;;;;;23.00;46.40;;;;;;5012318;28;1052;-35
2022/04/01 10:56:37;;;;;;;;;;;22.90;46.50;;;;;;5065821;28;1902;-35
2022/04/01 10:59:04;;;;;;;;;;;23.00;46.50;;;;;;5093709;28;959;-35
2022/04/01 11:01:32;;;;;;;;;;;23.00;46.60;;;;;;5094552;28;974;-39
2022/04/01 11:04:02;;;;;;;;;;;22.90;46.70;;;;;;5096704;28;916;-40
2022/04/01 11:06:30;;;;;;;;;;;22.90;46.70;;;;;;5098064;28;995;-41
2022/04/01 11:08:57;;;;;;;;;;;22.90;46.60;;;;;;5097411;28;1764;-40
2022/04/01 11:11:24;;;;;;;;;;;22.90;46.50;;;;;;5098344;28;1008;-40
2022/04/01 11:14:03;;;;;;;;;;;23.00;46.50;;;;;;5097781;28;1009;-39
2022/04/01 11:16:45;;;;;;;;;;;23.00;46.50;;;;;;5097028;28;1909;-40
2022/04/01 11:19:18;;;;;;;;;;;23.00;46.50;;;;;;5098137;28;1014;-40
2022/04/01 11:21:47;;;;;;;;;;;23.00;46.60;;;;;;5097272;28;992;-39
2022/04/01 11:24:30;;;;;;;;;;;23.00;46.50;;;;;;5098024;28;990;-40
2022/04/01 11:27:05;;;;;;;;;;;22.90;46.50;;;;;;5097550;28;1066;-41
2022/04/01 11:29:32;;;;;;;;;;;23.00;46.40;;;;;;5097140;28;1977;-40
2022/04/01 11:32:02;;;;;;;;;;;23.00;46.40;;;;;;5097862;28;896;-39
2022/04/01 11:34:29;;;;;;;;;;;23.00;46.40;;;;;;5097566;28;1012;-40
2022/04/01 11:37:00;;;;;;;;;;;23.00;46.40;;;;;;5097342;28;1910;-35
2022/04/01 11:39:27;;;;;;;;;;;23.00;46.30;;;;;;5098439;28;908;-36
2022/04/01 11:41:54;;;;;;;;;;;23.00;46.40;;;;;;5097544;28;969;-36
2022/04/01 11:44:21;;;;;;;;;;;23.00;46.40;;;;;;5097680;28;1099;-35
2022/04/01 11:46:55;;;;;;;;;;;23.00;46.40;;;;;;5096739;28;1008;-35
2022/04/01 11:49:26;;;;;;;;;;;23.00;46.30;;;;;;5097529;28;996;-36
2022/04/01 11:51:53;;;;;;;;;;;23.00;46.40;;;;;;5096666;28;880;-36
2022/04/01 11:54:22;;;;;;;;;;;23.00;46.40;;;;;;5098275;28;885;-34
2022/04/01 11:56:51;;;;;;;;;;;22.90;46.40;;;;;;5095866;28;2004;-35
2022/04/01 11:59:18;;;;;;;;;;;22.90;46.30;;;;;;5096799;28;929;-35
2022/04/01 12:01:58;;;;;;;;;;;22.90;46.30;;;;;;5097871;28;989;-36
2022/04/01 12:04:29;;;;;;;;;;;22.90;46.40;;;;;;5096069;28;932;-35
2022/04/01 12:09:44;;;;;;;;;;;22.90;46.40;;;;;;5097436;28;971;-36
2022/04/01 12:12:11;;;;;;;;;;;22.90;46.40;;;;;;5096406;28;1015;-35
2022/04/01 12:14:38;;;;;;;;;;;22.90;46.40;;;;;;5096470;28;1075;-35
2022/04/01 12:17:07;;;;;;;;;;;22.90;46.40;;;;;;5097250;28;1976;-35
2022/04/01 12:19:33;;;;;;;;;;;22.90;46.40;;;;;;5097178;28;1022;-34
2022/04/01 12:22:00;;;;;;;;;;;22.90;46.40;;;;;;5096291;28;888;-35
2022/04/01 12:24:27;;;;;;;;;;;22.90;46.40;;;;;;5097644;28;1008;-35
2022/04/01 12:26:56;;;;;;;;;;;22.90;46.40;;;;;;5095608;28;1036;-36
2022/04/01 12:29:23;;;;;;;;;;;22.90;46.40;;;;;;5096957;28;989;-35
2022/04/01 12:31:52;;;;;;;;;;;22.90;46.40;;;;;;5095544;28;1040;-34
2022/04/01 12:34:19;;;;;;;;;;;22.90;46.40;;;;;;5096158;28;997;-34
2022/04/01 12:36:51;;;;;;;;;;;22.90;46.40;;;;;;5096105;28;1980;-41
2022/04/01 12:39:18;;;;;;;;;;;22.90;46.30;;;;;;5096916;28;984;-41
2022/04/01 12:41:49;;;;;;;;;;;22.90;46.40;;;;;;5095760;28;992;-35
2022/04/01 12:44:17;;;;;;;;;;;22.90;46.30;;;;;;5096316;28;1380;-35
2022/04/01 12:46:47;;;;;;;;;;;22.90;46.20;;;;;;5097037;28;1055;-35
2022/04/01 12:49:15;;;;;;;;;;;22.90;46.20;;;;;;5096836;28;948;-41
2022/04/01 12:51:49;;;;;;;;;;;22.80;46.20;;;;;;5097202;28;977;-41
2022/04/01 12:54:24;;;;;;;;;;;22.90;46.30;;;;;;5095730;28;1035;-40
2022/04/01 12:56:51;;;;;;;;;;;22.90;46.20;;;;;;5096757;28;913;-41
2022/04/01 12:59:21;;;;;;;;;;;22.90;46.20;;;;;;5096761;28;860;-34
2022/04/01 13:01:56;;;;;;;;;;;22.90;46.20;;;;;;5096290;28;992;-37
2022/04/01 13:04:23;;;;;;;;;;;22.90;46.20;;;;;;5095592;28;1011;-36
2022/04/01 13:07:04;;;;;;;;;;;22.90;46.20;;;;;;5096603;28;985;-36
2022/04/01 13:09:32;;;;;;;;;;;22.90;46.30;;;;;;5095706;28;1001;-35
2022/04/01 13:11:59;;;;;;;;;;;22.80;46.20;;;;;;5095379;28;1000;-40
2022/04/01 13:14:29;;;;;;;;;;;22.90;46.30;;;;;;5094970;28;985;-41
2022/04/01 13:16:56;;;;;;;;;;;22.80;46.30;;;;;;5096246;28;984;-41
2022/04/01 13:19:26;;;;;;;;;;;22.80;46.20;;;;;;5095559;28;1917;-41
2022/04/01 13:21:54;;;;;;;;;;;22.80;46.30;;;;;;5096664;28;1027;-41
2022/04/01 13:24:21;;;;;;;;;;;22.80;46.30;;;;;;5096476;28;1070;-41
2022/04/01 13:26:48;;;;;;;;;;;22.80;46.30;;;;;;5093992;28;999;-36
2022/04/01 13:29:15;;;;;;;;;;;22.80;46.30;;;;;;5094524;28;879;-34
2022/04/01 13:31:43;;;;;;;;;;;22.80;46.30;;;;;;5094667;28;944;-36
2022/04/01 13:34:11;;;;;;;;;;;22.80;46.30;;;;;;5094789;28;1015;-35
2022/04/01 13:36:38;;;;;;;;;;;22.80;46.30;;;;;;5095701;28;896;-40
2022/04/01 13:39:05;;;;;;;;;;;22.80;46.40;;;;;;5094514;28;1972;-40
2022/04/01 13:41:33;;;;;;;;;;;22.80;46.30;;;;;;5094641;28;913;-41
2022/04/01 13:43:59;;;;;;;;;;;22.80;46.40;;;;;;5095237;28;1031;-41
2022/04/01 13:46:27;;;;;;;;;;;22.80;46.30;;;;;;5094792;28;992;-41
2022/04/01 13:48:55;;;;;;;;;;;22.70;46.30;;;;;;5094222;28;928;-41
2022/04/01 13:51:22;;;;;;;;;;;22.80;46.40;;;;;;5094315;28;932;-42
2022/04/01 13:53:49;;;;;;;;;;;22.80;46.40;;;;;;5094688;28;1020;-41
2022/04/01 13:56:16;;;;;;;;;;;22.80;46.40;;;;;;5094117;28;889;-41
2022/04/01 13:58:42;;;;;;;;;;;22.80;46.30;;;;;;5094285;28;1967;-41
2022/04/01 14:01:11;;;;;;;;;;;22.80;47.50;;;;;;5094873;28;1374;-41
2022/04/01 14:03:38;;;;;;;;;;;22.80;46.40;;;;;;5095963;28;991;-41
2022/04/01 14:06:07;;;;;;;;;;;22.80;46.40;;;;;;5095855;28;969;-41
2022/04/01 14:08:34;;;;;;;;;;;22.80;46.40;;;;;;5095662;28;961;-41
2022/04/01 14:11:01;;;;;;;;;;;22.70;46.30;;;;;;5095368;28;1819;-41
2022/04/01 14:13:28;;;;;;;;;;;22.80;46.30;;;;;;5094100;28;999;-41
2022/04/01 14:15:54;;;;;;;;;;;22.80;46.30;;;;;;5094880;28;865;-41
2022/04/01 14:18:21;;;;;;;;;;;22.80;46.30;;;;;;5095332;28;1901;-41
2022/04/01 14:20:49;;;;;;;;;;;22.70;46.30;;;;;;5096397;28;1008;-34
2022/04/01 14:23:17;;;;;;;;;;;22.80;46.30;;;;;;5096664;28;1003;-36
2022/04/01 14:25:45;;;;;;;;;;;22.70;46.30;;;;;;5093842;28;968;-34
2022/04/01 14:28:12;;;;;;;;;;;22.70;46.30;;;;;;5094285;28;984;-41
2022/04/01 14:30:39;;;;;;;;;;;22.70;46.30;;;;;;5094003;28;1012;-42
2022/04/01 14:33:06;;;;;;;;;;;22.70;46.30;;;;;;5094273;28;980;-42
2022/04/01 14:35:33;;;;;;;;;;;22.70;46.30;;;;;;5094109;28;882;-42
2022/04/01 14:38:01;;;;;;;;;;;22.70;46.30;;;;;;5096384;28;1894;-42
2022/04/01 14:40:31;;;;;;;;;;;22.70;46.30;;;;;;5098374;28;973;-42
2022/04/01 14:42:59;;;;;;;;;;;22.70;46.30;;;;;;5098365;28;1173;-42
2022/04/01 14:45:27;;;;;;;;;;;22.70;46.30;;;;;;5099132;28;1678;-48
2022/04/01 14:47:53;;;;;;;;;;;22.70;46.30;;;;;;5098261;28;924;-41
2022/04/01 14:50:20;;;;;;;;;;;22.70;46.20;;;;;;5096553;28;1020;-41
2022/04/01 14:52:47;;;;;;;;;;;22.70;46.20;;;;;;5098467;28;1771;-43
2022/04/01 14:55:14;;;;;;;;;;;22.70;46.20;;;;;;5098675;28;944;-42
2022/04/01 14:57:43;;;;;;;;;;;22.70;46.20;;;;;;5097131;28;1898;-41
2022/04/01 15:00:12;;;;;;;;;;;22.70;46.20;;;;;;5097787;28;1111;-41
2022/04/01 15:02:39;;;;;;;;;;;22.70;46.10;;;;;;5097245;28;900;-41